Time;durP1;ratioP1;P1;durP2;ratioP2;P2;SDS_P1;SDS_P2;PMS_P1;PMS_P2;Temp;Humidity;BMP_temperature;BMP_pressure;BME280_temperature;BME280_humidity;BME280_pressure;Samples;Min_cycle;Max_cycle;Signal;HPM_P1;HPM_P2
2023/05/01 00:01:27;;;;;;;1.70;1.50;;;10.80;99.90;;;;;;5055339;28;21010;-82
2023/05/01 00:03:55;;;;;;;5.30;2.13;;;10.80;99.90;;;;;;5055823;28;20876;-82
2023/05/01 00:06:21;;;;;;;2.10;1.03;;;10.70;99.90;;;;;;5055714;28;20450;-82
2023/05/01 00:08:48;;;;;;;3.10;1.73;;;10.70;99.90;;;;;;5055622;28;20442;-82
2023/05/01 00:11:15;;;;;;;1.63;1.20;;;10.70;99.90;;;;;;5055587;28;20474;-82
2023/05/01 00:13:42;;;;;;;1.43;1.23;;;10.70;99.90;;;;;;5055463;28;20441;-82
2023/05/01 00:16:09;;;;;;;2.60;2.20;;;10.70;99.90;;;;;;5055523;28;20449;-82
2023/05/01 00:18:36;;;;;;;2.73;1.70;;;10.60;99.90;;;;;;5055445;28;20442;-82
2023/05/01 00:21:04;;;;;;;1.17;1.07;;;10.60;99.90;;;;;;5055319;28;20544;-82
2023/05/01 00:23:31;;;;;;;2.30;2.10;;;10.60;99.90;;;;;;5054440;28;20455;-82
2023/05/01 00:25:57;;;;;;;1.73;1.63;;;10.60;99.90;;;;;;5055378;28;20447;-82
2023/05/01 00:28:24;;;;;;;1.47;1.37;;;10.60;99.90;;;;;;5055373;28;20450;-82
2023/05/01 00:30:51;;;;;;;3.13;2.50;;;10.50;99.90;;;;;;5055243;28;20454;-82
2023/05/01 00:33:18;;;;;;;1.77;1.63;;;10.60;99.90;;;;;;5055224;28;20450;-82
2023/05/01 00:35:44;;;;;;;3.80;2.07;;;10.60;99.90;;;;;;5055204;28;20509;-82
2023/05/01 00:38:13;;;;;;;3.37;1.60;;;10.60;99.90;;;;;;5055143;28;20469;-82
2023/05/01 00:40:43;;;;;;;2.83;2.00;;;10.60;99.90;;;;;;5054750;28;20972;-82
2023/05/01 00:43:10;;;;;;;2.50;2.00;;;10.60;99.90;;;;;;5055094;28;20447;-82
2023/05/01 00:45:37;;;;;;;3.33;1.87;;;10.70;99.90;;;;;;5055059;28;20922;-82
2023/05/01 00:48:04;;;;;;;2.70;2.43;;;10.70;99.90;;;;;;5054989;28;20453;-82
2023/05/01 00:50:32;;;;;;;5.63;2.23;;;10.80;99.90;;;;;;5054890;28;20442;-82
2023/05/01 00:52:58;;;;;;;2.70;1.90;;;10.80;99.90;;;;;;5054912;28;20997;-82
2023/05/01 00:55:27;;;;;;;1.40;1.27;;;10.80;99.90;;;;;;5054648;28;20954;-82
2023/05/01 00:57:55;;;;;;;2.60;2.40;;;10.80;99.90;;;;;;5054938;28;20447;-82
2023/05/01 01:00:23;;;;;;;2.70;1.73;;;10.90;99.90;;;;;;5054759;28;20464;-82
2023/05/01 01:02:50;;;;;;;1.90;1.30;;;10.90;99.90;;;;;;5054101;28;20868;-84
2023/05/01 01:05:18;;;;;;;2.93;1.97;;;10.90;99.90;;;;;;5054353;28;20957;-84
2023/05/01 01:07:50;;;;;;;2.70;1.40;;;10.90;99.90;;;;;;5054553;28;20461;-84
2023/05/01 01:10:21;;;;;;;2.30;2.10;;;10.90;99.90;;;;;;5054560;28;20434;-84
2023/05/01 01:12:58;;;;;;;4.90;2.03;;;11.00;99.90;;;;;;5054514;28;20466;-84
2023/05/01 01:15:33;;;;;;;2.53;1.53;;;11.00;99.90;;;;;;5054270;28;20414;-84
2023/05/01 01:18:07;;;;;;;1.67;1.57;;;11.00;99.90;;;;;;5054139;28;20430;-84
2023/05/01 01:20:40;;;;;;;2.27;1.50;;;11.00;99.90;;;;;;5054367;28;20442;-84
2023/05/01 01:23:42;;;;;;;2.63;1.70;;;11.00;99.90;;;;;;5053918;28;21011;-84
2023/05/01 01:26:33;;;;;;;2.03;1.80;;;11.10;99.90;;;;;;5054283;28;20788;-84
2023/05/01 01:29:26;;;;;;;2.67;1.90;;;11.10;99.90;;;;;;5054142;28;20430;-84
2023/05/01 01:32:04;;;;;;;2.47;1.90;;;11.10;99.90;;;;;;5054041;28;20824;-84
2023/05/01 01:34:35;;;;;;;3.10;2.70;;;11.10;99.90;;;;;;5053839;28;20437;-83
2023/05/01 01:37:07;;;;;;;3.53;2.13;;;11.10;99.90;;;;;;5053973;28;20435;-84
2023/05/01 01:39:43;;;;;;;3.83;2.20;;;11.10;99.90;;;;;;5053739;28;20534;-84
2023/05/01 01:42:16;;;;;;;2.67;1.70;;;11.10;99.90;;;;;;5053780;28;20490;-84
2023/05/01 01:44:50;;;;;;;2.10;1.70;;;11.00;99.90;;;;;;5053795;28;20524;-84
2023/05/01 01:47:19;;;;;;;2.63;1.60;;;11.10;99.90;;;;;;5053598;28;20429;-84
2023/05/01 01:49:51;;;;;;;2.10;2.00;;;11.00;99.90;;;;;;5053968;28;20458;-84
2023/05/01 01:52:20;;;;;;;1.77;1.50;;;11.00;99.90;;;;;;5053695;28;20462;-83
2023/05/01 01:54:51;;;;;;;7.20;1.90;;;11.00;99.90;;;;;;5053615;28;20504;-84
2023/05/01 01:57:21;;;;;;;1.43;1.33;;;11.00;99.90;;;;;;5054530;28;20431;-84
2023/05/01 01:59:50;;;;;;;1.53;1.33;;;10.90;99.90;;;;;;5053802;28;20454;-84
2023/05/01 02:02:19;;;;;;;2.80;1.60;;;10.90;99.90;;;;;;5053215;28;20490;-83
2023/05/01 02:04:49;;;;;;;1.60;1.50;;;10.90;99.90;;;;;;5053475;28;20461;-82
2023/05/01 02:07:17;;;;;;;1.90;1.80;;;10.90;99.90;;;;;;5053788;28;20442;-82
2023/05/01 02:09:45;;;;;;;3.33;2.00;;;10.90;99.90;;;;;;5053636;28;20446;-82
2023/05/01 02:12:14;;;;;;;1.30;1.17;;;10.90;99.90;;;;;;5053397;28;20462;-82
2023/05/01 02:14:42;;;;;;;2.30;2.10;;;10.90;99.90;;;;;;5053147;28;20521;-82
2023/05/01 02:17:10;;;;;;;2.00;1.47;;;10.90;99.90;;;;;;5053127;28;20431;-82
2023/05/01 02:19:39;;;;;;;2.40;1.90;;;10.90;99.90;;;;;;5053384;28;20450;-82
2023/05/01 02:22:08;;;;;;;5.40;1.67;;;10.90;99.90;;;;;;5053159;28;20532;-82
2023/05/01 02:24:37;;;;;;;3.77;2.03;;;10.90;99.90;;;;;;5052985;28;20457;-82
2023/05/01 02:27:08;;;;;;;4.97;2.83;;;10.80;99.90;;;;;;5053177;28;20446;-82
2023/05/01 02:29:35;;;;;;;4.57;1.80;;;10.80;99.90;;;;;;5053321;28;20489;-82
2023/05/01 02:32:01;;;;;;;3.37;1.80;;;10.80;99.90;;;;;;5053117;28;20462;-82
2023/05/01 02:34:29;;;;;;;1.90;1.70;;;10.80;99.90;;;;;;5053176;28;20457;-82
2023/05/01 02:36:55;;;;;;;1.90;1.80;;;10.80;99.90;;;;;;5053206;28;20474;-82
2023/05/01 02:39:24;;;;;;;2.70;1.87;;;10.80;99.90;;;;;;5053095;28;20442;-82
2023/05/01 02:41:54;;;;;;;1.10;1.10;;;10.80;99.90;;;;;;5052581;28;20490;-82
2023/05/01 02:44:22;;;;;;;1.93;1.63;;;10.80;99.90;;;;;;5053110;28;20431;-82
2023/05/01 02:46:51;;;;;;;2.83;2.47;;;10.80;99.90;;;;;;5055486;28;20450;-82
2023/05/01 02:49:19;;;;;;;2.60;1.53;;;10.80;99.90;;;;;;5057107;28;20457;-82
2023/05/01 02:51:47;;;;;;;2.43;1.70;;;10.80;99.90;;;;;;5056738;28;20477;-82
2023/05/01 02:54:15;;;;;;;2.60;2.17;;;10.70;99.90;;;;;;5057101;28;20446;-82
2023/05/01 02:56:43;;;;;;;3.70;1.53;;;10.70;99.90;;;;;;5056715;28;20494;-82
2023/05/01 02:59:09;;;;;;;7.93;2.30;;;10.80;99.90;;;;;;5057015;28;20468;-82
2023/05/01 03:01:36;;;;;;;3.20;2.50;;;10.80;99.90;;;;;;5056634;28;21032;-82
2023/05/01 03:04:03;;;;;;;2.87;1.80;;;10.80;99.90;;;;;;5056586;28;20546;-82
2023/05/01 03:06:30;;;;;;;2.80;1.87;;;10.70;99.90;;;;;;5056566;28;20441;-82
2023/05/01 03:08:57;;;;;;;2.17;2.07;;;10.80;99.90;;;;;;5056972;28;20455;-82
2023/05/01 03:11:24;;;;;;;2.97;2.10;;;10.70;99.90;;;;;;5056741;28;20477;-82
2023/05/01 03:13:52;;;;;;;3.77;1.73;;;10.70;99.90;;;;;;5056414;28;20945;-82
2023/05/01 03:16:18;;;;;;;2.63;1.50;;;10.70;99.90;;;;;;5056746;28;20451;-82
2023/05/01 03:18:45;;;;;;;2.30;2.10;;;10.70;99.90;;;;;;5056612;28;20453;-82
2023/05/01 03:21:12;;;;;;;4.57;2.67;;;10.70;99.90;;;;;;5056788;28;20455;-82
2023/05/01 03:23:39;;;;;;;1.93;1.50;;;10.70;99.90;;;;;;5056140;28;20490;-82
2023/05/01 03:26:06;;;;;;;3.37;1.77;;;10.70;99.90;;;;;;5056481;28;20488;-82
2023/05/01 03:28:33;;;;;;;2.33;1.83;;;10.70;99.90;;;;;;5056119;28;20926;-82
2023/05/01 03:31:01;;;;;;;4.00;2.20;;;10.70;99.90;;;;;;5056266;28;20454;-82
2023/05/01 03:33:28;;;;;;;2.30;1.40;;;10.70;99.90;;;;;;5056441;28;20449;-82
2023/05/01 03:36:02;;;;;;;3.50;2.10;;;10.70;99.90;;;;;;5056311;28;20445;-82
2023/05/01 03:38:29;;;;;;;1.53;1.43;;;10.70;99.90;;;;;;5056234;28;20528;-82
2023/05/01 03:40:56;;;;;;;4.43;2.67;;;10.60;99.90;;;;;;5056097;28;20785;-82
2023/05/01 03:43:23;;;;;;;4.97;3.13;;;10.60;99.90;;;;;;5055845;28;20478;-81
2023/05/01 03:45:50;;;;;;;1.37;1.27;;;10.60;99.90;;;;;;5056196;28;20508;-82
2023/05/01 03:48:19;;;;;;;1.07;0.90;;;10.60;99.90;;;;;;5055724;28;20938;-82
2023/05/01 03:50:45;;;;;;;2.20;1.80;;;10.60;99.90;;;;;;5055952;28;20484;-82
2023/05/01 03:53:13;;;;;;;4.40;1.30;;;10.60;99.90;;;;;;5055696;28;21000;-82
2023/05/01 03:55:39;;;;;;;2.40;1.57;;;10.60;99.90;;;;;;5055896;28;20450;-82
2023/05/01 03:58:06;;;;;;;1.70;1.60;;;10.70;99.90;;;;;;5055785;28;20454;-82
2023/05/01 04:00:33;;;;;;;3.33;1.87;;;10.70;99.90;;;;;;5055725;28;20529;-82
2023/05/01 04:03:00;;;;;;;2.80;1.90;;;10.70;99.90;;;;;;5055779;28;20498;-82
2023/05/01 04:05:28;;;;;;;3.90;1.50;;;10.60;99.90;;;;;;5055843;28;20446;-82
2023/05/01 04:07:55;;;;;;;1.90;1.40;;;10.60;99.90;;;;;;5055763;28;20442;-82
2023/05/01 04:10:23;;;;;;;1.50;1.40;;;10.60;99.90;;;;;;5055703;28;20468;-82
2023/05/01 04:12:50;;;;;;;2.50;2.30;;;10.60;99.90;;;;;;5055264;28;20977;-82
2023/05/01 04:15:17;;;;;;;2.30;1.53;;;10.60;99.90;;;;;;5055799;28;20450;-82
2023/05/01 04:17:45;;;;;;;1.47;1.37;;;10.60;99.90;;;;;;5055530;28;20450;-82
2023/05/01 04:20:12;;;;;;;4.40;1.93;;;10.70;99.90;;;;;;5055452;28;20458;-82
2023/05/01 04:22:40;;;;;;;2.50;1.87;;;10.70;99.90;;;;;;5055436;28;20540;-82
2023/05/01 04:25:08;;;;;;;3.00;1.67;;;10.70;99.90;;;;;;5055373;28;20447;-82
2023/05/01 04:27:35;;;;;;;5.17;1.90;;;10.70;99.90;;;;;;5055595;28;20450;-82
2023/05/01 04:30:02;;;;;;;2.77;1.47;;;10.80;99.90;;;;;;5055309;28;20473;-82
2023/05/01 04:32:29;;;;;;;1.27;1.10;;;10.70;99.90;;;;;;5055225;28;20462;-82
2023/05/01 04:34:55;;;;;;;1.87;1.00;;;10.80;99.90;;;;;;5055228;28;20504;-82
2023/05/01 04:37:22;;;;;;;2.00;1.67;;;10.70;99.90;;;;;;5055168;28;20450;-82
2023/05/01 04:39:50;;;;;;;2.40;1.70;;;10.70;99.90;;;;;;5055167;28;20450;-82
2023/05/01 04:42:17;;;;;;;1.53;1.37;;;10.80;99.90;;;;;;5055020;28;20490;-82
2023/05/01 04:44:46;;;;;;;2.30;1.57;;;10.70;99.90;;;;;;5054828;28;20953;-82
2023/05/01 04:47:12;;;;;;;1.10;1.00;;;10.80;99.90;;;;;;5055352;28;20457;-82
2023/05/01 04:49:39;;;;;;;2.23;2.03;;;10.70;99.90;;;;;;5055015;28;20451;-82
2023/05/01 04:52:06;;;;;;;1.20;1.20;;;10.70;99.90;;;;;;5054896;28;20471;-82
2023/05/01 04:54:33;;;;;;;3.60;1.90;;;10.70;99.90;;;;;;5054600;28;20447;-82
2023/05/01 04:57:02;;;;;;;2.23;1.17;;;10.70;99.90;;;;;;5054791;28;20450;-82
2023/05/01 04:59:28;;;;;;;1.40;1.30;;;10.60;99.90;;;;;;5054892;28;20529;-81
2023/05/01 05:01:55;;;;;;;2.97;1.70;;;10.60;99.90;;;;;;5054431;28;20497;-81
2023/05/01 05:04:22;;;;;;;2.20;1.67;;;10.50;99.90;;;;;;5054704;28;20451;-81
2023/05/01 05:06:49;;;;;;;2.10;1.80;;;10.50;99.90;;;;;;5054656;28;20917;-81
2023/05/01 05:09:15;;;;;;;3.47;1.90;;;10.40;99.90;;;;;;5053995;28;20451;-81
2023/05/01 05:11:42;;;;;;;5.00;1.70;;;10.30;99.90;;;;;;5054116;28;20524;-81
2023/05/01 05:14:10;;;;;;;3.53;1.40;;;10.30;99.90;;;;;;5054190;28;20443;-81
2023/05/01 05:16:37;;;;;;;3.07;1.93;;;10.30;99.90;;;;;;5054488;28;20454;-81
2023/05/01 05:19:04;;;;;;;4.57;1.67;;;10.40;99.90;;;;;;5054100;28;20443;-81
2023/05/01 05:21:31;;;;;;;3.27;1.23;;;10.40;99.90;;;;;;5054012;28;20505;-81
2023/05/01 05:23:58;;;;;;;1.10;0.93;;;10.40;99.90;;;;;;5054254;28;20482;-81
2023/05/01 05:26:25;;;;;;;2.67;2.47;;;10.40;99.90;;;;;;5054240;28;20446;-81
2023/05/01 05:28:52;;;;;;;1.60;1.50;;;10.40;99.90;;;;;;5054176;28;20446;-81
2023/05/01 05:31:20;;;;;;;1.67;1.40;;;10.40;99.90;;;;;;5053720;28;20466;-81
2023/05/01 05:33:47;;;;;;;2.63;1.80;;;10.40;99.90;;;;;;5053780;28;20536;-81
2023/05/01 05:36:14;;;;;;;2.00;1.87;;;10.50;99.90;;;;;;5054053;28;20450;-81
2023/05/01 05:38:41;;;;;;;3.80;1.83;;;10.50;99.90;;;;;;5054363;28;20446;-81
2023/05/01 05:41:08;;;;;;;1.97;1.60;;;10.50;99.90;;;;;;5053966;28;20463;-81
2023/05/01 05:43:35;;;;;;;1.97;1.77;;;10.40;99.90;;;;;;5053931;28;20493;-81
2023/05/01 05:46:01;;;;;;;2.00;1.83;;;10.40;99.90;;;;;;5053924;28;20453;-81
2023/05/01 05:48:29;;;;;;;2.17;1.80;;;10.40;99.90;;;;;;5053968;28;20446;-81
2023/05/01 05:50:56;;;;;;;2.40;1.80;;;10.40;99.90;;;;;;5053948;28;20839;-81
2023/05/01 05:53:23;;;;;;;5.80;2.47;;;10.40;99.90;;;;;;5053806;28;20442;-81
2023/05/01 05:55:50;;;;;;;3.10;2.00;;;10.50;99.90;;;;;;5053735;28;20478;-81
2023/05/01 05:58:18;;;;;;;4.87;2.40;;;10.50;99.90;;;;;;5053607;28;20457;-81
2023/05/01 06:00:47;;;;;;;3.80;2.60;;;10.50;99.90;;;;;;5053419;28;20465;-81
2023/05/01 06:03:13;;;;;;;4.30;2.60;;;10.50;99.90;;;;;;5053535;28;20516;-81
2023/05/01 06:05:42;;;;;;;2.40;1.73;;;10.50;99.90;;;;;;5053609;28;20450;-81
2023/05/01 06:08:09;;;;;;;1.73;1.27;;;10.60;99.90;;;;;;5053513;28;20453;-81
2023/05/01 06:10:38;;;;;;;4.67;2.10;;;10.70;99.90;;;;;;5053148;28;20497;-81
2023/05/01 06:13:05;;;;;;;3.80;2.60;;;10.80;99.90;;;;;;5053247;28;20470;-81
2023/05/01 06:15:32;;;;;;;2.53;2.20;;;10.80;99.90;;;;;;5053332;28;20946;-81
2023/05/01 06:17:59;;;;;;;4.53;2.70;;;10.90;99.90;;;;;;5053411;28;20453;-81
2023/05/01 06:20:26;;;;;;;1.93;1.83;;;11.00;99.90;;;;;;5052132;28;20454;-82
2023/05/01 06:22:54;;;;;;;4.97;1.93;;;11.10;99.90;;;;;;5053232;28;20489;-82
2023/05/01 06:25:21;;;;;;;2.53;2.00;;;11.20;99.90;;;;;;5053579;28;20895;-82
2023/05/01 06:27:48;;;;;;;2.47;2.27;;;11.20;99.90;;;;;;5053301;28;20446;-81
2023/05/01 06:30:15;;;;;;;2.73;1.63;;;11.30;99.90;;;;;;5053169;28;20457;-81
2023/05/01 06:32:42;;;;;;;2.43;1.83;;;11.30;99.90;;;;;;5053096;28;20462;-81
2023/05/01 06:35:10;;;;;;;2.40;1.60;;;11.30;99.90;;;;;;5052901;28;20489;-81
2023/05/01 06:37:37;;;;;;;1.47;1.40;;;11.40;99.90;;;;;;5053160;28;20477;-81
2023/05/01 06:40:06;;;;;;;4.40;2.37;;;11.40;99.90;;;;;;5053205;28;20484;-82
2023/05/01 06:42:33;;;;;;;2.80;1.90;;;11.40;99.90;;;;;;5052714;28;20450;-81
2023/05/01 06:45:00;;;;;;;5.63;2.13;;;11.40;99.90;;;;;;5053049;28;20447;-81
2023/05/01 06:47:26;;;;;;;3.13;2.07;;;11.40;99.90;;;;;;5053174;28;20489;-81
2023/05/01 06:49:53;;;;;;;2.73;2.00;;;11.30;99.90;;;;;;5053118;28;20457;-81
2023/05/01 06:52:20;;;;;;;2.07;1.70;;;11.30;99.90;;;;;;5052698;28;20833;-81
2023/05/01 06:54:47;;;;;;;4.20;2.17;;;11.30;99.90;;;;;;5053253;28;20442;-81
2023/05/01 06:57:15;;;;;;;2.73;1.90;;;11.30;99.90;;;;;;5053017;28;20521;-81
2023/05/01 06:59:41;;;;;;;4.80;2.50;;;11.20;99.90;;;;;;5053042;28;20446;-81
2023/05/01 07:02:08;;;;;;;1.90;1.80;;;11.30;99.90;;;;;;5052643;28;20493;-81
2023/05/01 07:04:35;;;;;;;2.63;1.57;;;11.30;99.90;;;;;;5052937;28;20857;-81
2023/05/01 07:07:02;;;;;;;2.20;2.03;;;11.40;99.90;;;;;;5052976;28;20461;-81
2023/05/01 07:09:28;;;;;;;4.73;2.73;;;11.40;99.90;;;;;;5052942;28;20455;-81
2023/05/01 07:11:56;;;;;;;4.23;2.07;;;11.50;99.90;;;;;;5052915;28;20475;-81
2023/05/01 07:14:24;;;;;;;1.53;1.43;;;11.50;99.90;;;;;;5052960;28;20442;-81
2023/05/01 07:16:51;;;;;;;4.83;2.30;;;11.50;99.90;;;;;;5052945;28;20446;-81
2023/05/01 07:19:17;;;;;;;2.13;1.93;;;11.50;99.90;;;;;;5052879;28;20457;-81
2023/05/01 07:21:44;;;;;;;2.17;1.57;;;11.50;99.90;;;;;;5052890;28;20845;-81
2023/05/01 07:24:12;;;;;;;6.53;1.80;;;11.60;99.90;;;;;;5052409;28;20474;-81
2023/05/01 07:26:39;;;;;;;1.90;1.70;;;11.70;99.90;;;;;;5052774;28;20450;-81
2023/05/01 07:29:05;;;;;;;2.10;1.63;;;11.80;99.90;;;;;;5052759;28;20486;-82
2023/05/01 07:31:33;;;;;;;2.03;1.37;;;12.00;99.90;;;;;;5052917;28;20470;-80
2023/05/01 07:34:00;;;;;;;1.90;1.80;;;12.20;99.90;;;;;;5056223;28;20816;-80
2023/05/01 07:36:27;;;;;;;2.80;2.27;;;12.40;99.90;;;;;;5056486;28;20482;-84
2023/05/01 07:38:54;;;;;;;2.33;2.10;;;12.40;99.90;;;;;;5056439;28;20450;-85
2023/05/01 07:41:21;;;;;;;2.10;1.80;;;12.40;99.90;;;;;;5056318;28;20506;-85
2023/05/01 07:43:48;;;;;;;2.27;1.80;;;12.50;99.90;;;;;;5056805;28;20492;-84
2023/05/01 07:46:14;;;;;;;2.30;1.60;;;12.50;99.90;;;;;;5055996;28;20466;-85
2023/05/01 07:48:43;;;;;;;3.70;1.80;;;12.50;99.90;;;;;;5056302;28;20437;-82
2023/05/01 07:51:10;;;;;;;3.27;1.87;;;12.50;99.90;;;;;;5055832;28;21005;-81
2023/05/01 07:53:37;;;;;;;2.23;1.67;;;12.70;99.90;;;;;;5055991;28;20439;-81
2023/05/01 07:56:07;;;;;;;3.03;1.90;;;12.70;99.90;;;;;;5056094;28;20452;-81
2023/05/01 07:58:34;;;;;;;1.93;1.50;;;12.70;99.90;;;;;;5056078;28;20500;-81
2023/05/01 08:01:02;;;;;;;3.10;1.37;;;12.80;99.90;;;;;;5055750;28;20489;-81
2023/05/01 08:03:29;;;;;;;1.97;1.73;;;12.80;99.90;;;;;;5055759;28;20500;-81
2023/05/01 08:05:57;;;;;;;2.50;2.30;;;12.90;99.90;;;;;;5055811;28;20476;-82
2023/05/01 08:08:25;;;;;;;3.83;2.57;;;13.00;99.90;;;;;;5055801;28;20457;-81
2023/05/01 08:10:51;;;;;;;1.53;1.33;;;13.10;99.90;;;;;;5055811;28;20493;-81
2023/05/01 08:13:18;;;;;;;2.50;2.30;;;13.20;99.90;;;;;;5055860;28;20442;-81
2023/05/01 08:15:46;;;;;;;3.03;2.00;;;13.40;99.90;;;;;;5055727;28;20446;-82
2023/05/01 08:18:18;;;;;;;2.20;1.53;;;13.50;99.90;;;;;;5055642;28;20446;-81
2023/05/01 08:20:46;;;;;;;2.80;2.40;;;13.70;99.90;;;;;;5055860;28;20438;-81
2023/05/01 08:23:14;;;;;;;2.73;2.10;;;13.90;99.90;;;;;;5055595;28;20450;-81
2023/05/01 08:25:41;;;;;;;8.43;1.77;;;14.00;99.90;;;;;;5055599;28;20446;-82
2023/05/01 08:28:07;;;;;;;2.40;1.80;;;14.10;99.90;;;;;;5055454;28;20938;-81
2023/05/01 08:30:34;;;;;;;4.37;2.23;;;14.20;99.90;;;;;;5055497;28;20442;-82
2023/05/01 08:33:01;;;;;;;3.07;2.10;;;14.30;99.90;;;;;;5055304;28;20977;-81
2023/05/01 08:35:28;;;;;;;3.30;2.13;;;14.50;99.90;;;;;;5055481;28;20451;-81
2023/05/01 08:37:55;;;;;;;2.07;1.87;;;14.70;99.90;;;;;;5055377;28;20460;-82
2023/05/01 08:40:23;;;;;;;1.80;1.70;;;14.80;99.90;;;;;;5055253;28;20867;-81
2023/05/01 08:42:51;;;;;;;3.97;1.90;;;15.00;99.90;;;;;;5054770;28;20471;-81
2023/05/01 08:45:20;;;;;;;3.57;1.77;;;15.30;99.90;;;;;;5054277;28;20505;-81
2023/05/01 08:47:49;;;;;;;1.97;1.77;;;15.50;99.90;;;;;;5055137;28;20460;-81
2023/05/01 08:50:17;;;;;;;2.67;1.70;;;15.60;99.90;;;;;;5055146;28;20454;-82
2023/05/01 08:52:45;;;;;;;2.40;2.10;;;15.60;99.90;;;;;;5054960;28;20466;-82
2023/05/01 08:55:13;;;;;;;3.50;2.53;;;15.60;99.90;;;;;;5055033;28;20447;-82
2023/05/01 08:57:45;;;;;;;3.90;1.73;;;15.50;99.90;;;;;;5054981;28;20462;-82
2023/05/01 09:00:17;;;;;;;3.33;2.53;;;15.40;99.90;;;;;;5054786;28;20504;-82
2023/05/01 09:02:45;;;;;;;1.73;1.63;;;15.50;99.90;;;;;;5054700;28;20962;-82
2023/05/01 09:05:13;;;;;;;3.40;1.67;;;15.60;99.90;;;;;;5054956;28;20512;-81
2023/05/01 09:07:42;;;;;;;3.53;1.83;;;15.70;99.90;;;;;;5054773;28;20446;-81
2023/05/01 09:10:09;;;;;;;2.57;1.70;;;15.70;99.90;;;;;;5054971;28;20447;-82
2023/05/01 09:12:37;;;;;;;2.50;1.70;;;15.80;99.90;;;;;;5054630;28;20477;-82
2023/05/01 09:15:07;;;;;;;3.00;1.90;;;16.00;99.90;;;;;;5054900;28;20450;-81
2023/05/01 09:17:35;;;;;;;1.97;1.60;;;16.10;99.90;;;;;;5054626;28;20500;-82
2023/05/01 09:20:04;;;;;;;4.77;1.93;;;16.30;99.90;;;;;;5054169;28;20934;-82
2023/05/01 09:22:32;;;;;;;2.00;1.83;;;16.40;99.90;;;;;;5054385;28;20824;-82
2023/05/01 09:24:59;;;;;;;3.47;2.20;;;16.50;99.90;;;;;;5054311;28;20485;-82
2023/05/01 09:27:27;;;;;;;2.57;1.80;;;16.50;99.90;;;;;;5054559;28;20454;-82
2023/05/01 09:29:54;;;;;;;2.27;1.77;;;16.60;99.90;;;;;;5055086;28;20446;-82
2023/05/01 09:32:26;;;;;;;2.07;1.80;;;16.50;99.90;;;;;;5053927;28;20474;-81
2023/05/01 09:34:53;;;;;;;4.43;2.33;;;16.60;99.90;;;;;;5053946;28;20465;-82
2023/05/01 09:37:27;;;;;;;3.13;1.97;;;16.70;99.90;;;;;;5054257;28;21002;-82
2023/05/01 09:40:08;;;;;;;1.80;1.70;;;16.70;99.90;;;;;;5054153;28;20449;-82
2023/05/01 09:42:37;;;;;;;2.30;2.20;;;16.70;99.90;;;;;;5054047;28;20466;-82
2023/05/01 09:45:06;;;;;;;2.40;1.97;;;16.70;99.90;;;;;;5053980;28;20539;-82
2023/05/01 09:47:34;;;;;;;1.90;1.70;;;16.90;99.90;;;;;;5053998;28;20446;-82
2023/05/01 09:50:01;;;;;;;2.17;1.97;;;17.20;99.90;;;;;;5053956;28;20446;-82
2023/05/01 09:52:29;;;;;;;3.43;1.83;;;17.40;99.90;;;;;;5053852;28;20478;-82
2023/05/01 09:55:15;;;;;;;2.70;1.97;;;17.60;99.90;;;;;;5053430;28;20457;-83
2023/05/01 09:57:43;;;;;;;3.00;2.40;;;17.60;99.90;;;;;;5053810;28;20450;-84
2023/05/01 10:00:13;;;;;;;3.33;2.83;;;17.60;99.90;;;;;;5053802;28;20457;-83
2023/05/01 10:02:42;;;;;;;2.87;2.27;;;17.50;99.90;;;;;;5053517;28;20604;-83
2023/05/01 10:05:10;;;;;;;2.30;2.00;;;17.50;99.90;;;;;;5053626;28;20486;-84
2023/05/01 10:07:38;;;;;;;2.60;2.30;;;17.40;99.90;;;;;;5053739;28;20544;-84
2023/05/01 10:10:18;;;;;;;1.83;1.73;;;17.50;99.90;;;;;;5053328;28;21022;-84
2023/05/01 10:12:45;;;;;;;4.47;2.37;;;17.50;99.90;;;;;;5053508;28;20474;-84
2023/05/01 10:15:11;;;;;;;2.30;2.00;;;17.60;99.90;;;;;;5053575;28;20450;-84
2023/05/01 10:17:39;;;;;;;3.87;2.27;;;17.60;99.90;;;;;;5053535;28;20454;-84
2023/05/01 10:20:10;;;;;;;1.70;1.60;;;17.60;99.90;;;;;;5053516;28;20822;-84
2023/05/01 10:22:37;;;;;;;3.30;2.07;;;17.60;99.90;;;;;;5053963;28;20492;-84
2023/05/01 10:25:04;;;;;;;3.43;2.37;;;17.50;99.90;;;;;;5053370;28;20489;-84
2023/05/01 10:27:32;;;;;;;1.73;1.63;;;17.40;99.90;;;;;;5053078;28;20458;-84
2023/05/01 10:30:03;;;;;;;1.97;1.77;;;17.30;99.90;;;;;;5053429;28;20489;-84
2023/05/01 10:32:32;;;;;;;2.70;2.50;;;17.30;99.90;;;;;;5052902;28;20462;-84
2023/05/01 10:35:02;;;;;;;2.20;2.00;;;17.30;99.90;;;;;;5053144;28;20870;-83
2023/05/01 10:37:37;;;;;;;2.40;2.20;;;17.30;99.90;;;;;;5053205;28;20464;-84
2023/05/01 10:40:52;;;;;;;4.70;2.23;;;17.30;99.90;;;;;;5053161;28;20434;-84
2023/05/01 10:43:27;;;;;;;3.30;2.53;;;17.20;99.90;;;;;;4991577;28;20796;-84
2023/05/01 10:45:55;;;;;;;2.93;2.40;;;17.20;99.90;;;;;;4991684;28;20563;-84
2023/05/01 10:48:57;;;;;;;3.90;2.70;;;17.10;99.90;;;;;;5022645;28;20450;-84
2023/05/01 10:51:24;;;;;;;3.43;1.77;;;17.00;99.90;;;;;;5053061;28;20477;-84
2023/05/01 10:54:25;;;;;;;6.77;2.10;;;16.70;99.90;;;;;;5053045;28;20446;-84
2023/05/01 10:56:53;;;;;;;3.37;1.87;;;16.40;99.90;;;;;;5053012;28;20511;-83
2023/05/01 10:59:20;;;;;;;2.93;2.20;;;16.20;99.90;;;;;;5053051;28;20446;-83
2023/05/01 11:01:50;;;;;;;2.57;2.10;;;16.10;99.90;;;;;;5052575;28;20479;-85
2023/05/01 11:04:52;;;;;;;1.90;1.80;;;16.00;99.90;;;;;;5052956;28;20481;-82
2023/05/01 11:07:20;;;;;;;4.70;2.00;;;15.80;99.90;;;;;;5054423;28;20504;-84
2023/05/01 11:09:53;;;;;;;1.90;1.80;;;15.80;99.90;;;;;;5056662;28;20449;-82
2023/05/01 11:12:49;;;;;;;8.07;3.97;;;15.80;99.90;;;;;;5056522;28;20981;-83
2023/05/01 11:15:29;;;;;;;2.67;2.10;;;15.90;99.90;;;;;;5056483;28;20875;-82
2023/05/01 11:17:58;;;;;;;3.37;2.47;;;15.90;99.90;;;;;;5056530;28;20906;-83
2023/05/01 11:20:49;;;;;;;3.40;2.40;;;15.80;99.90;;;;;;5056770;28;20451;-83
2023/05/01 11:23:20;;;;;;;2.70;1.87;;;15.80;99.90;;;;;;5054471;28;20941;-83
2023/05/01 11:25:49;;;;;;;4.50;2.50;;;15.80;99.90;;;;;;5056669;28;20474;-83
2023/05/01 11:28:21;;;;;;;3.47;2.10;;;15.80;99.90;;;;;;5056631;28;20446;-83
2023/05/01 11:30:48;;;;;;;3.13;1.87;;;15.70;99.90;;;;;;5056547;28;20459;-83
2023/05/01 11:33:24;;;;;;;4.13;1.73;;;15.80;99.90;;;;;;5056396;28;20946;-83
2023/05/01 11:35:58;;;;;;;4.40;2.47;;;15.80;99.90;;;;;;5056278;28;20921;-83
2023/05/01 11:38:25;;;;;;;2.77;2.57;;;15.80;99.90;;;;;;5056509;28;20480;-83
2023/05/01 11:40:57;;;;;;;4.83;2.57;;;15.80;99.90;;;;;;5056269;28;20450;-83
2023/05/01 11:43:25;;;;;;;3.37;2.03;;;15.90;99.90;;;;;;5056476;28;20433;-83
2023/05/01 11:45:55;;;;;;;4.90;2.53;;;16.00;99.90;;;;;;5056443;28;20920;-82
2023/05/01 11:48:22;;;;;;;6.73;2.97;;;16.00;99.90;;;;;;5056221;28;20456;-83
2023/05/01 11:50:49;;;;;;;3.33;2.17;;;15.90;99.90;;;;;;5056120;28;20450;-83
2023/05/01 11:53:16;;;;;;;3.90;2.60;;;16.00;99.90;;;;;;5056208;28;20451;-83
2023/05/01 11:55:43;;;;;;;2.27;1.77;;;16.20;99.90;;;;;;5056249;28;20454;-83
2023/05/01 11:58:11;;;;;;;3.73;1.23;;;16.40;99.90;;;;;;5056113;28;20442;-84
2023/05/01 12:00:40;;;;;;;2.07;1.93;;;16.70;99.90;;;;;;5055995;28;20465;-83
2023/05/01 12:03:09;;;;;;;2.40;1.87;;;16.90;99.90;;;;;;5055926;28;20465;-83
2023/05/01 12:05:37;;;;;;;2.97;1.67;;;17.00;99.90;;;;;;5055863;28;20481;-83
2023/05/01 12:08:10;;;;;;;2.33;2.13;;;17.00;99.90;;;;;;5055932;28;20451;-83
2023/05/01 12:10:37;;;;;;;1.70;1.60;;;16.90;99.90;;;;;;5055545;28;20473;-83
2023/05/01 12:13:06;;;;;;;3.57;1.87;;;16.80;99.90;;;;;;5055933;28;20470;-83
2023/05/01 12:15:36;;;;;;;2.57;1.90;;;16.60;99.90;;;;;;5056273;28;20438;-83
2023/05/01 12:18:03;;;;;;;2.80;1.67;;;16.50;99.90;;;;;;5054941;28;20449;-84
2023/05/01 12:20:38;;;;;;;1.83;1.33;;;16.40;99.90;;;;;;5054824;28;20494;-83
2023/05/01 12:23:05;;;;;;;2.53;2.17;;;16.30;99.90;;;;;;5055591;28;20481;-83
2023/05/01 12:25:33;;;;;;;2.53;2.10;;;16.10;99.90;;;;;;5055464;28;20485;-83
2023/05/01 12:28:03;;;;;;;2.47;1.77;;;16.00;99.90;;;;;;5055766;28;20490;-83
2023/05/01 12:30:30;;;;;;;3.70;2.10;;;16.00;99.90;;;;;;5055448;28;20533;-83
2023/05/01 12:32:59;;;;;;;3.30;2.00;;;16.10;99.90;;;;;;5055305;28;20499;-83
2023/05/01 12:35:31;;;;;;;3.20;2.03;;;16.20;99.90;;;;;;5055425;28;20446;-83
2023/05/01 12:37:59;;;;;;;2.37;1.70;;;16.30;99.90;;;;;;5055409;28;20450;-83
2023/05/01 12:40:27;;;;;;;2.67;2.03;;;16.40;99.90;;;;;;5054967;28;20977;-83
2023/05/01 12:42:56;;;;;;;6.77;2.30;;;16.40;99.90;;;;;;5055390;28;20470;-83
2023/05/01 12:45:23;;;;;;;2.30;1.80;;;16.30;99.90;;;;;;5055151;28;20505;-83
2023/05/01 12:47:50;;;;;;;3.97;1.80;;;16.10;99.90;;;;;;5055151;28;20446;-83
2023/05/01 12:50:19;;;;;;;3.93;2.30;;;15.90;99.90;;;;;;5055080;28;20446;-83
2023/05/01 12:52:46;;;;;;;3.20;2.17;;;15.60;99.90;;;;;;5054711;28;21004;-82
2023/05/01 12:55:13;;;;;;;2.10;1.80;;;15.30;99.90;;;;;;5054967;28;20449;-81
2023/05/01 12:57:51;;;;;;;3.70;2.87;;;15.00;99.90;;;;;;5054684;28;20451;-79